Weather at Boneyard Airstrip

Public forecast

Using degrees Fahrenheit for public forecast. Weather courtesy of forecast.io.

Closest aviation weather report (METAR) to Boneyard Airstrip

Closest report is Hayward Executive Airport, 4.8 nm (8.9 km) W.

2024/05/30 17:54 (retrieved 48 minutes ago)

KHWD 301754Z 28007KT 10SM CLR 23/12 A2998 RMK AO2 SLP161 T02280122 10228 20117 58007

Closest aviation forecast (TAF) to Boneyard Airstrip

Closest forecast is Livermore Municipal Airport, 9.7 nm (18.0 km) E.

2024/05/30 18:22 (retrieved 20 minutes ago)

TAF KLVK 301720Z 3018/3118 VRB05KT P6SM SKC FM302100 28012KT P6SM SKC FM310400 VRB03KT P6SM SKC